Tombstone, AZ

9:24 PM MST on December 09, 2016 (GMT -0700)
AB7CQ-1 | | Change Station

Elev 4472 ft 31.73 °N, 110.05 °W | Updated 2 seconds ago

Partly Cloudy
Partly Cloudy
46.0 °F
Feels Like 46 °F
N
0.7
Wind Variable Wind from East
Gusts 2.7 mph

Today
High -- | Low -- °F
--% Chance of Precip.
Yesterday
High -- | Low -- °F
Precip. -- in
Pressure 30.18 in
Visibility 9.0 miles
Clouds Clear
Windchill 46 °F
Dew Point 32 °F
Humidity 57%
Rainfall 0.00 in
Snow Depth Not available.
7:08 AM 5:16 PM
Waxing Gibbous, 80% visible
METAR KFHU 100358Z AUTO 22003KT 9SM CLR 08/M01 A3024 RMK AO2 SLP219 T00821011
Pressure 30.18 in
Visibility 9.0 miles
Clouds Clear
Windchill 46 °F
Dew Point 32 °F
Humidity 57%
Rainfall 0.00 in
Snow Depth Not available.
7:08 AM 5:16 PM
Waxing Gibbous, 80% visible
METAR KFHU 100358Z AUTO 22003KT 9SM CLR 08/M01 A3024 RMK AO2 SLP219 T00821011

10-Day Weather Forecast

Almanac

Astronomy

Dec. 09, 2016 Rise Set
Actual Time
Civil Twilight
Nautical Twilight
Astronomical Twilight
Moon
Length of Visible Light
Length of Day
Tomorrow will be .
, % of the Moon is Illuminated

Today's Extremes

State Highs State Lows

Community

WunderPhotos

Upload Photos

1,956,529 photos uploaded!

WunderBlog® & News

Nearby

Air Quality

  Air Quality AQ Index Pollutant
Not available.

Snow Depth

Station Depth Elevation

Earthquake Activity

City Distance Mag. Time & Date
Minimum magnitude displayed is 2.5.

Coastal Water Temperatures

Place Temperature

Stations

Nearby Weather Stations

Station Location Temp. Windchill Dew Point Humidity Wind Precip. Elev Updated Type
                   

Watches & Warnings

There are currently no watches in effect.